sensor_id;sensor_type;location;lat;lon;timestamp;P1;durP1;ratioP1;P2;durP2;ratioP2
18334;SDS011;9293;49.524;10.964;2023-12-22T00:00:29;5.65;;;1.17;;
18334;SDS011;9293;49.524;10.964;2023-12-22T00:02:57;5.35;;;0.80;;
18334;SDS011;9293;49.524;10.964;2023-12-22T00:05:26;7.65;;;1.02;;
18334;SDS011;9293;49.524;10.964;2023-12-22T00:07:54;5.68;;;0.98;;
18334;SDS011;9293;49.524;10.964;2023-12-22T00:10:23;6.13;;;0.90;;
18334;SDS011;9293;49.524;10.964;2023-12-22T00:12:51;6.55;;;1.00;;
18334;SDS011;9293;49.524;10.964;2023-12-22T00:15:19;5.78;;;0.90;;
18334;SDS011;9293;49.524;10.964;2023-12-22T00:17:48;5.88;;;1.30;;
18334;SDS011;9293;49.524;10.964;2023-12-22T00:20:16;6.78;;;1.05;;
18334;SDS011;9293;49.524;10.964;2023-12-22T00:22:45;5.80;;;1.27;;
18334;SDS011;9293;49.524;10.964;2023-12-22T00:25:13;8.55;;;1.02;;
18334;SDS011;9293;49.524;10.964;2023-12-22T00:27:42;7.75;;;1.20;;
18334;SDS011;9293;49.524;10.964;2023-12-22T00:30:10;4.68;;;0.90;;
18334;SDS011;9293;49.524;10.964;2023-12-22T00:32:39;5.40;;;1.33;;
18334;SDS011;9293;49.524;10.964;2023-12-22T00:35:07;6.93;;;1.58;;
18334;SDS011;9293;49.524;10.964;2023-12-22T00:37:36;10.77;;;1.33;;
18334;SDS011;9293;49.524;10.964;2023-12-22T00:40:04;7.30;;;1.35;;
18334;SDS011;9293;49.524;10.964;2023-12-22T00:42:35;4.93;;;1.08;;
18334;SDS011;9293;49.524;10.964;2023-12-22T00:45:03;6.57;;;1.42;;
18334;SDS011;9293;49.524;10.964;2023-12-22T00:47:32;10.85;;;1.50;;
18334;SDS011;9293;49.524;10.964;2023-12-22T00:50:03;12.25;;;1.80;;
18334;SDS011;9293;49.524;10.964;2023-12-22T00:52:33;8.27;;;1.40;;
18334;SDS011;9293;49.524;10.964;2023-12-22T00:55:01;6.13;;;1.00;;
18334;SDS011;9293;49.524;10.964;2023-12-22T00:57:30;5.15;;;1.30;;
18334;SDS011;9293;49.524;10.964;2023-12-22T00:59:58;9.13;;;1.35;;
18334;SDS011;9293;49.524;10.964;2023-12-22T01:02:27;8.43;;;1.30;;
18334;SDS011;9293;49.524;10.964;2023-12-22T01:04:55;6.72;;;1.13;;
18334;SDS011;9293;49.524;10.964;2023-12-22T01:07:23;7.63;;;1.20;;
18334;SDS011;9293;49.524;10.964;2023-12-22T01:09:53;5.72;;;1.23;;
18334;SDS011;9293;49.524;10.964;2023-12-22T01:12:21;7.18;;;1.65;;
18334;SDS011;9293;49.524;10.964;2023-12-22T01:14:50;8.70;;;1.40;;
18334;SDS011;9293;49.524;10.964;2023-12-22T01:17:19;6.53;;;1.60;;
18334;SDS011;9293;49.524;10.964;2023-12-22T01:19:47;5.85;;;1.10;;
18334;SDS011;9293;49.524;10.964;2023-12-22T01:22:16;9.80;;;2.05;;
18334;SDS011;9293;49.524;10.964;2023-12-22T01:24:44;7.13;;;1.40;;
18334;SDS011;9293;49.524;10.964;2023-12-22T01:27:16;5.72;;;1.30;;
18334;SDS011;9293;49.524;10.964;2023-12-22T01:29:48;8.40;;;1.42;;
18334;SDS011;9293;49.524;10.964;2023-12-22T01:32:16;7.18;;;1.20;;
18334;SDS011;9293;49.524;10.964;2023-12-22T01:34:45;6.93;;;1.23;;
18334;SDS011;9293;49.524;10.964;2023-12-22T01:37:13;5.85;;;1.00;;
18334;SDS011;9293;49.524;10.964;2023-12-22T01:39:42;8.43;;;1.17;;
18334;SDS011;9293;49.524;10.964;2023-12-22T01:42:10;7.05;;;0.90;;
18334;SDS011;9293;49.524;10.964;2023-12-22T01:44:38;6.13;;;1.17;;
18334;SDS011;9293;49.524;10.964;2023-12-22T01:47:07;7.18;;;0.90;;
18334;SDS011;9293;49.524;10.964;2023-12-22T01:49:36;3.08;;;0.70;;
18334;SDS011;9293;49.524;10.964;2023-12-22T01:52:04;3.05;;;0.60;;
18334;SDS011;9293;49.524;10.964;2023-12-22T01:54:33;3.88;;;0.70;;
18334;SDS011;9293;49.524;10.964;2023-12-22T01:57:02;4.22;;;0.88;;
18334;SDS011;9293;49.524;10.964;2023-12-22T01:59:31;2.42;;;0.40;;
18334;SDS011;9293;49.524;10.964;2023-12-22T02:04:30;3.08;;;0.50;;
18334;SDS011;9293;49.524;10.964;2023-12-22T02:07:01;6.70;;;1.08;;
18334;SDS011;9293;49.524;10.964;2023-12-22T02:09:29;3.97;;;0.80;;
18334;SDS011;9293;49.524;10.964;2023-12-22T02:11:58;2.97;;;0.60;;
18334;SDS011;9293;49.524;10.964;2023-12-22T02:14:26;2.58;;;0.57;;
18334;SDS011;9293;49.524;10.964;2023-12-22T02:16:57;5.95;;;1.10;;
18334;SDS011;9293;49.524;10.964;2023-12-22T02:22:07;2.97;;;0.60;;
18334;SDS011;9293;49.524;10.964;2023-12-22T02:24:37;2.97;;;0.70;;
18334;SDS011;9293;49.524;10.964;2023-12-22T02:27:17;2.83;;;0.50;;
18334;SDS011;9293;49.524;10.964;2023-12-22T02:32:34;3.33;;;0.60;;
18334;SDS011;9293;49.524;10.964;2023-12-22T02:35:11;3.08;;;1.00;;
18334;SDS011;9293;49.524;10.964;2023-12-22T02:37:47;4.95;;;0.75;;
18334;SDS011;9293;49.524;10.964;2023-12-22T02:40:17;2.67;;;0.80;;
18334;SDS011;9293;49.524;10.964;2023-12-22T02:42:47;2.53;;;0.70;;
18334;SDS011;9293;49.524;10.964;2023-12-22T02:45:17;4.15;;;0.65;;
18334;SDS011;9293;49.524;10.964;2023-12-22T02:47:46;4.90;;;0.60;;
18334;SDS011;9293;49.524;10.964;2023-12-22T02:50:16;1.77;;;0.40;;
18334;SDS011;9293;49.524;10.964;2023-12-22T02:52:44;1.02;;;0.50;;
18334;SDS011;9293;49.524;10.964;2023-12-22T02:55:13;4.07;;;0.50;;
18334;SDS011;9293;49.524;10.964;2023-12-22T02:57:41;1.38;;;0.30;;
18334;SDS011;9293;49.524;10.964;2023-12-22T03:00:10;1.92;;;0.43;;
18334;SDS011;9293;49.524;10.964;2023-12-22T03:02:39;1.10;;;0.55;;
18334;SDS011;9293;49.524;10.964;2023-12-22T03:05:07;2.10;;;0.40;;
18334;SDS011;9293;49.524;10.964;2023-12-22T03:07:35;2.05;;;0.50;;
18334;SDS011;9293;49.524;10.964;2023-12-22T03:10:04;2.83;;;0.60;;
18334;SDS011;9293;49.524;10.964;2023-12-22T03:12:32;3.20;;;0.65;;
18334;SDS011;9293;49.524;10.964;2023-12-22T03:15:00;1.67;;;0.52;;
18334;SDS011;9293;49.524;10.964;2023-12-22T03:17:30;2.42;;;0.50;;
18334;SDS011;9293;49.524;10.964;2023-12-22T03:19:58;1.95;;;0.38;;
18334;SDS011;9293;49.524;10.964;2023-12-22T03:22:31;0.95;;;0.20;;
18334;SDS011;9293;49.524;10.964;2023-12-22T03:25:00;1.75;;;0.28;;
18334;SDS011;9293;49.524;10.964;2023-12-22T03:27:28;0.40;;;0.10;;
18334;SDS011;9293;49.524;10.964;2023-12-22T03:29:56;0.65;;;0.20;;
18334;SDS011;9293;49.524;10.964;2023-12-22T03:32:25;0.45;;;0.20;;
18334;SDS011;9293;49.524;10.964;2023-12-22T03:34:53;1.85;;;0.30;;
18334;SDS011;9293;49.524;10.964;2023-12-22T03:37:21;0.30;;;0.17;;
18334;SDS011;9293;49.524;10.964;2023-12-22T03:39:50;1.95;;;0.30;;
18334;SDS011;9293;49.524;10.964;2023-12-22T03:42:18;0.47;;;0.25;;
18334;SDS011;9293;49.524;10.964;2023-12-22T03:44:46;1.15;;;0.20;;
18334;SDS011;9293;49.524;10.964;2023-12-22T03:47:15;2.10;;;0.45;;
18334;SDS011;9293;49.524;10.964;2023-12-22T03:49:43;4.35;;;0.40;;
18334;SDS011;9293;49.524;10.964;2023-12-22T03:52:11;2.15;;;0.30;;
18334;SDS011;9293;49.524;10.964;2023-12-22T03:54:40;3.03;;;0.65;;
18334;SDS011;9293;49.524;10.964;2023-12-22T03:57:08;3.45;;;0.43;;
18334;SDS011;9293;49.524;10.964;2023-12-22T03:59:36;5.10;;;0.80;;
18334;SDS011;9293;49.524;10.964;2023-12-22T04:02:04;2.95;;;0.30;;
18334;SDS011;9293;49.524;10.964;2023-12-22T04:04:37;0.77;;;0.30;;
18334;SDS011;9293;49.524;10.964;2023-12-22T04:07:05;5.03;;;0.70;;
18334;SDS011;9293;49.524;10.964;2023-12-22T04:09:36;2.55;;;0.30;;
18334;SDS011;9293;49.524;10.964;2023-12-22T04:14:33;3.10;;;0.70;;
18334;SDS011;9293;49.524;10.964;2023-12-22T04:17:02;2.38;;;0.30;;
18334;SDS011;9293;49.524;10.964;2023-12-22T04:19:31;2.97;;;0.30;;
18334;SDS011;9293;49.524;10.964;2023-12-22T04:21:59;2.45;;;0.30;;
18334;SDS011;9293;49.524;10.964;2023-12-22T04:24:28;2.22;;;0.50;;
18334;SDS011;9293;49.524;10.964;2023-12-22T04:26:56;3.97;;;0.57;;
18334;SDS011;9293;49.524;10.964;2023-12-22T04:29:24;2.25;;;0.40;;
18334;SDS011;9293;49.524;10.964;2023-12-22T04:31:52;2.10;;;0.93;;
18334;SDS011;9293;49.524;10.964;2023-12-22T04:34:21;3.55;;;0.50;;
18334;SDS011;9293;49.524;10.964;2023-12-22T04:36:49;1.38;;;0.30;;
18334;SDS011;9293;49.524;10.964;2023-12-22T04:39:18;2.72;;;0.30;;
18334;SDS011;9293;49.524;10.964;2023-12-22T04:44:17;5.47;;;0.30;;
18334;SDS011;9293;49.524;10.964;2023-12-22T04:46:45;1.13;;;0.30;;
18334;SDS011;9293;49.524;10.964;2023-12-22T04:49:14;2.80;;;0.52;;
18334;SDS011;9293;49.524;10.964;2023-12-22T04:51:42;1.80;;;0.43;;
18334;SDS011;9293;49.524;10.964;2023-12-22T04:54:11;2.20;;;0.45;;
18334;SDS011;9293;49.524;10.964;2023-12-22T04:56:39;2.08;;;0.50;;
18334;SDS011;9293;49.524;10.964;2023-12-22T04:59:10;1.35;;;0.30;;
18334;SDS011;9293;49.524;10.964;2023-12-22T05:01:41;2.17;;;0.73;;
18334;SDS011;9293;49.524;10.964;2023-12-22T05:04:11;3.72;;;0.50;;
18334;SDS011;9293;49.524;10.964;2023-12-22T05:06:39;2.70;;;0.47;;
18334;SDS011;9293;49.524;10.964;2023-12-22T05:09:08;2.13;;;0.32;;
18334;SDS011;9293;49.524;10.964;2023-12-22T05:11:36;2.10;;;0.60;;
18334;SDS011;9293;49.524;10.964;2023-12-22T05:14:04;3.35;;;0.60;;
18334;SDS011;9293;49.524;10.964;2023-12-22T05:16:33;3.28;;;0.38;;
18334;SDS011;9293;49.524;10.964;2023-12-22T05:19:02;3.05;;;0.35;;
18334;SDS011;9293;49.524;10.964;2023-12-22T05:21:30;1.65;;;0.40;;
18334;SDS011;9293;49.524;10.964;2023-12-22T05:23:58;2.00;;;0.30;;
18334;SDS011;9293;49.524;10.964;2023-12-22T05:26:27;0.90;;;0.30;;
18334;SDS011;9293;49.524;10.964;2023-12-22T05:28:57;1.88;;;0.30;;
18334;SDS011;9293;49.524;10.964;2023-12-22T05:31:26;2.85;;;0.50;;
18334;SDS011;9293;49.524;10.964;2023-12-22T05:33:55;2.35;;;0.60;;
18334;SDS011;9293;49.524;10.964;2023-12-22T05:36:23;1.95;;;1.20;;
18334;SDS011;9293;49.524;10.964;2023-12-22T05:38:53;3.40;;;0.50;;
18334;SDS011;9293;49.524;10.964;2023-12-22T05:41:21;1.33;;;0.40;;
18334;SDS011;9293;49.524;10.964;2023-12-22T05:43:49;1.15;;;0.40;;
18334;SDS011;9293;49.524;10.964;2023-12-22T05:46:18;1.52;;;0.30;;
18334;SDS011;9293;49.524;10.964;2023-12-22T05:48:46;0.80;;;0.40;;
18334;SDS011;9293;49.524;10.964;2023-12-22T05:51:15;1.42;;;0.40;;
18334;SDS011;9293;49.524;10.964;2023-12-22T05:53:43;2.50;;;0.30;;
18334;SDS011;9293;49.524;10.964;2023-12-22T05:56:18;3.05;;;0.52;;
18334;SDS011;9293;49.524;10.964;2023-12-22T05:58:50;2.50;;;0.57;;
18334;SDS011;9293;49.524;10.964;2023-12-22T06:01:18;2.20;;;0.40;;
18334;SDS011;9293;49.524;10.964;2023-12-22T06:03:47;2.13;;;0.30;;
18334;SDS011;9293;49.524;10.964;2023-12-22T06:06:16;2.72;;;0.30;;
18334;SDS011;9293;49.524;10.964;2023-12-22T06:08:44;3.90;;;0.40;;
18334;SDS011;9293;49.524;10.964;2023-12-22T06:11:13;1.67;;;0.40;;
18334;SDS011;9293;49.524;10.964;2023-12-22T06:13:41;3.33;;;0.50;;
18334;SDS011;9293;49.524;10.964;2023-12-22T06:16:11;2.45;;;0.45;;
18334;SDS011;9293;49.524;10.964;2023-12-22T06:21:10;2.00;;;0.32;;
18334;SDS011;9293;49.524;10.964;2023-12-22T06:23:40;1.92;;;0.30;;
18334;SDS011;9293;49.524;10.964;2023-12-22T06:26:12;1.10;;;0.77;;
18334;SDS011;9293;49.524;10.964;2023-12-22T06:28:42;0.68;;;0.30;;
18334;SDS011;9293;49.524;10.964;2023-12-22T06:31:20;1.30;;;0.40;;
18334;SDS011;9293;49.524;10.964;2023-12-22T06:33:49;0.57;;;0.22;;
18334;SDS011;9293;49.524;10.964;2023-12-22T06:36:19;0.45;;;0.20;;
18334;SDS011;9293;49.524;10.964;2023-12-22T06:38:48;2.13;;;0.30;;
18334;SDS011;9293;49.524;10.964;2023-12-22T06:41:24;0.68;;;0.28;;
18334;SDS011;9293;49.524;10.964;2023-12-22T06:43:54;1.38;;;0.32;;
18334;SDS011;9293;49.524;10.964;2023-12-22T06:46:23;1.63;;;0.30;;
18334;SDS011;9293;49.524;10.964;2023-12-22T06:48:56;1.40;;;0.32;;
18334;SDS011;9293;49.524;10.964;2023-12-22T06:51:28;0.63;;;0.40;;
18334;SDS011;9293;49.524;10.964;2023-12-22T06:54:03;1.45;;;0.40;;
18334;SDS011;9293;49.524;10.964;2023-12-22T06:56:38;1.60;;;0.60;;
18334;SDS011;9293;49.524;10.964;2023-12-22T06:59:07;1.25;;;0.73;;
18334;SDS011;9293;49.524;10.964;2023-12-22T07:01:45;2.22;;;1.20;;
18334;SDS011;9293;49.524;10.964;2023-12-22T07:07:33;1.45;;;1.20;;
18334;SDS011;9293;49.524;10.964;2023-12-22T07:10:02;3.65;;;1.73;;
18334;SDS011;9293;49.524;10.964;2023-12-22T07:12:35;5.57;;;1.42;;
18334;SDS011;9293;49.524;10.964;2023-12-22T07:15:04;4.35;;;1.83;;
18334;SDS011;9293;49.524;10.964;2023-12-22T07:17:48;4.82;;;1.65;;
18334;SDS011;9293;49.524;10.964;2023-12-22T07:20:22;5.18;;;1.67;;
18334;SDS011;9293;49.524;10.964;2023-12-22T07:22:50;8.32;;;1.85;;
18334;SDS011;9293;49.524;10.964;2023-12-22T07:25:18;3.67;;;1.10;;
18334;SDS011;9293;49.524;10.964;2023-12-22T07:27:47;3.30;;;1.30;;
18334;SDS011;9293;49.524;10.964;2023-12-22T07:30:16;1.92;;;1.00;;
18334;SDS011;9293;49.524;10.964;2023-12-22T07:32:46;3.85;;;1.25;;
18334;SDS011;9293;49.524;10.964;2023-12-22T07:35:19;5.57;;;1.33;;
18334;SDS011;9293;49.524;10.964;2023-12-22T07:37:48;6.38;;;1.45;;
18334;SDS011;9293;49.524;10.964;2023-12-22T07:40:16;5.07;;;0.93;;
18334;SDS011;9293;49.524;10.964;2023-12-22T07:42:45;7.15;;;1.02;;
18334;SDS011;9293;49.524;10.964;2023-12-22T07:45:14;4.70;;;0.98;;
18334;SDS011;9293;49.524;10.964;2023-12-22T07:47:42;6.60;;;1.10;;
18334;SDS011;9293;49.524;10.964;2023-12-22T07:50:11;7.18;;;1.10;;
18334;SDS011;9293;49.524;10.964;2023-12-22T07:52:39;4.63;;;0.93;;
18334;SDS011;9293;49.524;10.964;2023-12-22T07:55:09;3.65;;;0.88;;
18334;SDS011;9293;49.524;10.964;2023-12-22T07:57:38;2.75;;;0.75;;
18334;SDS011;9293;49.524;10.964;2023-12-22T08:00:06;5.10;;;1.38;;
18334;SDS011;9293;49.524;10.964;2023-12-22T08:02:39;7.95;;;0.93;;
18334;SDS011;9293;49.524;10.964;2023-12-22T08:05:07;5.53;;;1.23;;
18334;SDS011;9293;49.524;10.964;2023-12-22T08:07:39;2.60;;;1.00;;
18334;SDS011;9293;49.524;10.964;2023-12-22T08:10:08;3.88;;;0.85;;
18334;SDS011;9293;49.524;10.964;2023-12-22T08:12:36;5.10;;;1.10;;
18334;SDS011;9293;49.524;10.964;2023-12-22T08:15:05;4.90;;;0.90;;
18334;SDS011;9293;49.524;10.964;2023-12-22T08:17:48;5.97;;;1.15;;
18334;SDS011;9293;49.524;10.964;2023-12-22T08:20:18;5.10;;;1.23;;
18334;SDS011;9293;49.524;10.964;2023-12-22T08:22:54;4.25;;;1.15;;
18334;SDS011;9293;49.524;10.964;2023-12-22T08:25:27;7.85;;;1.10;;
18334;SDS011;9293;49.524;10.964;2023-12-22T08:27:56;4.00;;;1.10;;
18334;SDS011;9293;49.524;10.964;2023-12-22T08:30:25;3.03;;;0.90;;
18334;SDS011;9293;49.524;10.964;2023-12-22T08:32:53;4.78;;;0.93;;
18334;SDS011;9293;49.524;10.964;2023-12-22T08:35:22;5.15;;;1.20;;
18334;SDS011;9293;49.524;10.964;2023-12-22T08:37:50;3.80;;;0.95;;
18334;SDS011;9293;49.524;10.964;2023-12-22T08:40:19;4.95;;;1.05;;
18334;SDS011;9293;49.524;10.964;2023-12-22T08:42:54;3.30;;;0.80;;
18334;SDS011;9293;49.524;10.964;2023-12-22T08:45:27;4.43;;;0.75;;
18334;SDS011;9293;49.524;10.964;2023-12-22T08:47:56;4.07;;;0.55;;
18334;SDS011;9293;49.524;10.964;2023-12-22T08:50:25;3.40;;;0.88;;
18334;SDS011;9293;49.524;10.964;2023-12-22T08:52:53;2.72;;;0.75;;
18334;SDS011;9293;49.524;10.964;2023-12-22T08:55:23;2.75;;;0.88;;
18334;SDS011;9293;49.524;10.964;2023-12-22T08:57:51;1.58;;;0.68;;
18334;SDS011;9293;49.524;10.964;2023-12-22T09:00:30;2.50;;;0.80;;
18334;SDS011;9293;49.524;10.964;2023-12-22T09:02:59;4.68;;;0.70;;
18334;SDS011;9293;49.524;10.964;2023-12-22T09:05:28;4.63;;;1.17;;
18334;SDS011;9293;49.524;10.964;2023-12-22T09:07:59;7.60;;;1.17;;
18334;SDS011;9293;49.524;10.964;2023-12-22T09:10:27;3.42;;;0.70;;
18334;SDS011;9293;49.524;10.964;2023-12-22T09:12:58;7.03;;;1.13;;
18334;SDS011;9293;49.524;10.964;2023-12-22T09:15:27;5.57;;;0.98;;
18334;SDS011;9293;49.524;10.964;2023-12-22T09:17:55;4.72;;;1.27;;
18334;SDS011;9293;49.524;10.964;2023-12-22T09:20:23;5.78;;;1.65;;
18334;SDS011;9293;49.524;10.964;2023-12-22T09:22:52;5.82;;;1.50;;
18334;SDS011;9293;49.524;10.964;2023-12-22T09:25:21;11.93;;;1.50;;
18334;SDS011;9293;49.524;10.964;2023-12-22T09:27:53;7.05;;;1.48;;
18334;SDS011;9293;49.524;10.964;2023-12-22T09:30:21;5.65;;;1.48;;
18334;SDS011;9293;49.524;10.964;2023-12-22T09:32:52;8.18;;;1.92;;
18334;SDS011;9293;49.524;10.964;2023-12-22T09:35:21;7.43;;;1.75;;
18334;SDS011;9293;49.524;10.964;2023-12-22T09:37:49;9.73;;;1.30;;
18334;SDS011;9293;49.524;10.964;2023-12-22T09:40:18;6.72;;;1.60;;
18334;SDS011;9293;49.524;10.964;2023-12-22T09:42:47;9.70;;;1.23;;
18334;SDS011;9293;49.524;10.964;2023-12-22T09:45:20;6.20;;;1.42;;
18334;SDS011;9293;49.524;10.964;2023-12-22T09:47:49;7.28;;;1.67;;
18334;SDS011;9293;49.524;10.964;2023-12-22T09:50:19;3.58;;;0.75;;
18334;SDS011;9293;49.524;10.964;2023-12-22T09:52:49;3.67;;;0.90;;
18334;SDS011;9293;49.524;10.964;2023-12-22T09:55:18;3.30;;;0.95;;
18334;SDS011;9293;49.524;10.964;2023-12-22T09:57:49;6.43;;;0.70;;
18334;SDS011;9293;49.524;10.964;2023-12-22T10:00:17;4.05;;;0.63;;
18334;SDS011;9293;49.524;10.964;2023-12-22T10:02:46;3.47;;;0.80;;
18334;SDS011;9293;49.524;10.964;2023-12-22T10:05:14;5.22;;;1.17;;
18334;SDS011;9293;49.524;10.964;2023-12-22T10:07:46;5.72;;;1.10;;
18334;SDS011;9293;49.524;10.964;2023-12-22T10:10:15;4.38;;;0.85;;
18334;SDS011;9293;49.524;10.964;2023-12-22T10:12:44;3.88;;;0.73;;
18334;SDS011;9293;49.524;10.964;2023-12-22T10:15:14;5.20;;;0.70;;
18334;SDS011;9293;49.524;10.964;2023-12-22T10:17:54;2.90;;;0.60;;
18334;SDS011;9293;49.524;10.964;2023-12-22T10:20:23;2.05;;;0.55;;
18334;SDS011;9293;49.524;10.964;2023-12-22T10:22:51;3.25;;;0.82;;
18334;SDS011;9293;49.524;10.964;2023-12-22T10:25:20;1.40;;;0.60;;
18334;SDS011;9293;49.524;10.964;2023-12-22T10:27:51;1.75;;;0.43;;
18334;SDS011;9293;49.524;10.964;2023-12-22T10:30:19;1.88;;;0.80;;
18334;SDS011;9293;49.524;10.964;2023-12-22T10:32:49;2.15;;;0.47;;
18334;SDS011;9293;49.524;10.964;2023-12-22T10:35:20;1.88;;;0.50;;
18334;SDS011;9293;49.524;10.964;2023-12-22T10:37:49;2.33;;;0.70;;
18334;SDS011;9293;49.524;10.964;2023-12-22T10:40:21;3.10;;;0.55;;
18334;SDS011;9293;49.524;10.964;2023-12-22T10:42:50;1.83;;;0.52;;
18334;SDS011;9293;49.524;10.964;2023-12-22T10:45:19;2.90;;;0.70;;
18334;SDS011;9293;49.524;10.964;2023-12-22T10:47:50;3.47;;;0.80;;
18334;SDS011;9293;49.524;10.964;2023-12-22T10:50:19;2.53;;;0.65;;
18334;SDS011;9293;49.524;10.964;2023-12-22T10:52:48;3.45;;;1.08;;
18334;SDS011;9293;49.524;10.964;2023-12-22T10:55:18;3.65;;;0.90;;
18334;SDS011;9293;49.524;10.964;2023-12-22T10:57:47;3.85;;;1.20;;
18334;SDS011;9293;49.524;10.964;2023-12-22T11:00:16;3.15;;;1.13;;
18334;SDS011;9293;49.524;10.964;2023-12-22T11:02:47;3.08;;;1.35;;
18334;SDS011;9293;49.524;10.964;2023-12-22T11:05:17;3.08;;;1.10;;
18334;SDS011;9293;49.524;10.964;2023-12-22T11:07:49;4.85;;;1.38;;
18334;SDS011;9293;49.524;10.964;2023-12-22T11:10:23;2.55;;;0.70;;
18334;SDS011;9293;49.524;10.964;2023-12-22T11:12:55;3.05;;;0.93;;
18334;SDS011;9293;49.524;10.964;2023-12-22T11:15:25;1.92;;;0.73;;
18334;SDS011;9293;49.524;10.964;2023-12-22T11:17:55;3.78;;;0.70;;
18334;SDS011;9293;49.524;10.964;2023-12-22T11:20:26;3.97;;;0.97;;
18334;SDS011;9293;49.524;10.964;2023-12-22T11:23:00;1.98;;;0.60;;
18334;SDS011;9293;49.524;10.964;2023-12-22T11:25:30;1.75;;;0.43;;
18334;SDS011;9293;49.524;10.964;2023-12-22T11:27:59;2.75;;;0.70;;
18334;SDS011;9293;49.524;10.964;2023-12-22T11:30:30;3.85;;;0.90;;
18334;SDS011;9293;49.524;10.964;2023-12-22T11:33:00;0.70;;;0.40;;
18334;SDS011;9293;49.524;10.964;2023-12-22T11:35:29;3.33;;;0.50;;
18334;SDS011;9293;49.524;10.964;2023-12-22T11:38:00;1.63;;;0.65;;
18334;SDS011;9293;49.524;10.964;2023-12-22T11:40:33;2.65;;;0.60;;
18334;SDS011;9293;49.524;10.964;2023-12-22T11:43:02;2.55;;;0.70;;
18334;SDS011;9293;49.524;10.964;2023-12-22T11:45:31;2.95;;;1.05;;
18334;SDS011;9293;49.524;10.964;2023-12-22T11:48:10;6.85;;;0.80;;
18334;SDS011;9293;49.524;10.964;2023-12-22T11:50:38;2.90;;;0.60;;
18334;SDS011;9293;49.524;10.964;2023-12-22T11:53:17;2.03;;;0.65;;
18334;SDS011;9293;49.524;10.964;2023-12-22T11:56:04;3.10;;;0.70;;
18334;SDS011;9293;49.524;10.964;2023-12-22T11:58:39;2.45;;;0.80;;
18334;SDS011;9293;49.524;10.964;2023-12-22T12:01:12;2.28;;;0.80;;
18334;SDS011;9293;49.524;10.964;2023-12-22T12:03:41;5.90;;;0.80;;
18334;SDS011;9293;49.524;10.964;2023-12-22T12:06:30;7.32;;;1.40;;
18334;SDS011;9293;49.524;10.964;2023-12-22T12:09:03;4.78;;;1.20;;
18334;SDS011;9293;49.524;10.964;2023-12-22T12:14:22;3.40;;;0.85;;
18334;SDS011;9293;49.524;10.964;2023-12-22T12:17:06;4.00;;;0.88;;
18334;SDS011;9293;49.524;10.964;2023-12-22T12:19:39;6.50;;;1.40;;
18334;SDS011;9293;49.524;10.964;2023-12-22T12:22:14;7.80;;;1.30;;
18334;SDS011;9293;49.524;10.964;2023-12-22T12:24:42;5.25;;;1.45;;
18334;SDS011;9293;49.524;10.964;2023-12-22T12:27:17;5.60;;;1.67;;
18334;SDS011;9293;49.524;10.964;2023-12-22T12:29:46;9.45;;;1.98;;
18334;SDS011;9293;49.524;10.964;2023-12-22T12:32:17;9.65;;;1.67;;
18334;SDS011;9293;49.524;10.964;2023-12-22T12:37:15;7.32;;;2.10;;
18334;SDS011;9293;49.524;10.964;2023-12-22T12:39:44;12.48;;;1.75;;
18334;SDS011;9293;49.524;10.964;2023-12-22T12:42:15;9.15;;;2.33;;
18334;SDS011;9293;49.524;10.964;2023-12-22T12:44:52;9.20;;;2.13;;
18334;SDS011;9293;49.524;10.964;2023-12-22T12:47:21;11.70;;;2.65;;
18334;SDS011;9293;49.524;10.964;2023-12-22T12:50:00;13.27;;;2.22;;
18334;SDS011;9293;49.524;10.964;2023-12-22T12:52:29;14.13;;;2.42;;
18334;SDS011;9293;49.524;10.964;2023-12-22T12:54:58;11.68;;;1.85;;
18334;SDS011;9293;49.524;10.964;2023-12-22T12:57:28;11.07;;;2.00;;
18334;SDS011;9293;49.524;10.964;2023-12-22T12:59:57;11.80;;;2.40;;
18334;SDS011;9293;49.524;10.964;2023-12-22T13:02:25;9.35;;;2.25;;
18334;SDS011;9293;49.524;10.964;2023-12-22T13:04:55;11.32;;;2.72;;
18334;SDS011;9293;49.524;10.964;2023-12-22T13:07:24;10.60;;;2.53;;
18334;SDS011;9293;49.524;10.964;2023-12-22T13:09:57;13.85;;;2.40;;
18334;SDS011;9293;49.524;10.964;2023-12-22T13:12:25;9.20;;;2.50;;
18334;SDS011;9293;49.524;10.964;2023-12-22T13:14:54;14.70;;;2.88;;
18334;SDS011;9293;49.524;10.964;2023-12-22T13:17:23;13.75;;;2.63;;
18334;SDS011;9293;49.524;10.964;2023-12-22T13:19:51;15.73;;;2.50;;
18334;SDS011;9293;49.524;10.964;2023-12-22T13:22:20;11.95;;;2.35;;
18334;SDS011;9293;49.524;10.964;2023-12-22T13:24:55;11.07;;;2.20;;
18334;SDS011;9293;49.524;10.964;2023-12-22T13:27:27;8.57;;;1.85;;
18334;SDS011;9293;49.524;10.964;2023-12-22T13:29:55;10.77;;;3.10;;
18334;SDS011;9293;49.524;10.964;2023-12-22T13:32:23;7.13;;;1.85;;
18334;SDS011;9293;49.524;10.964;2023-12-22T13:34:53;9.90;;;2.00;;
18334;SDS011;9293;49.524;10.964;2023-12-22T13:37:25;8.70;;;1.80;;
18334;SDS011;9293;49.524;10.964;2023-12-22T13:39:58;7.47;;;1.77;;
18334;SDS011;9293;49.524;10.964;2023-12-22T13:42:27;7.28;;;2.00;;
18334;SDS011;9293;49.524;10.964;2023-12-22T13:44:56;9.75;;;1.98;;
18334;SDS011;9293;49.524;10.964;2023-12-22T13:47:24;5.60;;;1.50;;
18334;SDS011;9293;49.524;10.964;2023-12-22T13:49:54;7.78;;;1.17;;
18334;SDS011;9293;49.524;10.964;2023-12-22T13:52:28;5.75;;;1.30;;
18334;SDS011;9293;49.524;10.964;2023-12-22T13:55:00;6.40;;;1.63;;
18334;SDS011;9293;49.524;10.964;2023-12-22T13:57:30;9.02;;;1.40;;
18334;SDS011;9293;49.524;10.964;2023-12-22T13:59:58;5.38;;;1.67;;
18334;SDS011;9293;49.524;10.964;2023-12-22T14:02:29;6.72;;;1.50;;
18334;SDS011;9293;49.524;10.964;2023-12-22T14:04:58;7.28;;;1.80;;
18334;SDS011;9293;49.524;10.964;2023-12-22T14:07:26;5.45;;;1.83;;
18334;SDS011;9293;49.524;10.964;2023-12-22T14:09:55;7.43;;;1.77;;
18334;SDS011;9293;49.524;10.964;2023-12-22T14:12:23;5.25;;;1.20;;
18334;SDS011;9293;49.524;10.964;2023-12-22T14:14:57;6.00;;;1.30;;
18334;SDS011;9293;49.524;10.964;2023-12-22T14:17:26;5.97;;;1.20;;
18334;SDS011;9293;49.524;10.964;2023-12-22T14:19:57;5.28;;;1.17;;
18334;SDS011;9293;49.524;10.964;2023-12-22T14:22:25;4.43;;;0.95;;
18334;SDS011;9293;49.524;10.964;2023-12-22T14:24:54;4.55;;;0.95;;
18334;SDS011;9293;49.524;10.964;2023-12-22T14:27:23;2.65;;;0.95;;
18334;SDS011;9293;49.524;10.964;2023-12-22T14:29:51;4.63;;;0.90;;
18334;SDS011;9293;49.524;10.964;2023-12-22T14:32:19;6.13;;;1.17;;
18334;SDS011;9293;49.524;10.964;2023-12-22T14:34:48;4.47;;;0.93;;
18334;SDS011;9293;49.524;10.964;2023-12-22T14:37:17;3.38;;;0.85;;
18334;SDS011;9293;49.524;10.964;2023-12-22T14:39:45;3.25;;;1.00;;
18334;SDS011;9293;49.524;10.964;2023-12-22T14:42:19;4.47;;;1.52;;
18334;SDS011;9293;49.524;10.964;2023-12-22T14:44:51;3.83;;;1.35;;
18334;SDS011;9293;49.524;10.964;2023-12-22T14:47:19;3.83;;;1.10;;
18334;SDS011;9293;49.524;10.964;2023-12-22T14:49:48;2.75;;;0.70;;
18334;SDS011;9293;49.524;10.964;2023-12-22T14:52:16;3.22;;;0.55;;
18334;SDS011;9293;49.524;10.964;2023-12-22T14:54:44;1.80;;;0.55;;
18334;SDS011;9293;49.524;10.964;2023-12-22T14:57:13;2.47;;;0.55;;
18334;SDS011;9293;49.524;10.964;2023-12-22T14:59:44;1.95;;;0.82;;
18334;SDS011;9293;49.524;10.964;2023-12-22T15:02:13;1.17;;;0.30;;
18334;SDS011;9293;49.524;10.964;2023-12-22T15:04:42;2.13;;;0.55;;
18334;SDS011;9293;49.524;10.964;2023-12-22T15:07:14;2.13;;;0.50;;
18334;SDS011;9293;49.524;10.964;2023-12-22T15:09:43;2.80;;;0.80;;
18334;SDS011;9293;49.524;10.964;2023-12-22T15:12:12;1.85;;;0.43;;
18334;SDS011;9293;49.524;10.964;2023-12-22T15:14:44;0.85;;;0.40;;
18334;SDS011;9293;49.524;10.964;2023-12-22T15:17:13;0.75;;;0.30;;
18334;SDS011;9293;49.524;10.964;2023-12-22T15:19:42;1.80;;;0.55;;
18334;SDS011;9293;49.524;10.964;2023-12-22T15:22:11;1.38;;;0.50;;
18334;SDS011;9293;49.524;10.964;2023-12-22T15:24:40;1.85;;;0.52;;
18334;SDS011;9293;49.524;10.964;2023-12-22T15:27:11;3.30;;;0.50;;